Time;durP1;ratioP1;P1;durP2;ratioP2;P2;SDS_P1;SDS_P2;PMS_P1;PMS_P2;Temp;Humidity;BMP_temperature;BMP_pressure;BME280_temperature;BME280_humidity;BME280_pressure;Samples;Min_cycle;Max_cycle;Signal;HPM_P1;HPM_P2
2022/12/15 00:40:09;;;;;;;33.78;31.08;;;;;;;;;;5096039;28;20286;-79
2022/12/15 00:42:36;;;;;;;35.53;32.30;;;;;;;;;;5095642;28;20712;-78
2022/12/15 00:45:03;;;;;;;36.55;33.17;;;;;;;;;;5095493;28;20709;-80
2022/12/15 00:47:31;;;;;;;35.00;32.00;;;;;;;;;;5095339;28;20210;-78
2022/12/15 01:20:13;;;;;;;35.03;31.17;;;;;;;;;;5096143;28;20214;-79
2022/12/15 01:22:40;;;;;;;35.58;32.67;;;;;;;;;;5096570;28;20210;-78
2022/12/15 01:25:08;;;;;;;35.03;31.60;;;;;;;;;;5095793;28;20221;-78
2022/12/15 01:27:37;;;;;;;36.13;32.85;;;;;;;;;;5096144;28;20199;-78
2022/12/15 01:30:04;;;;;;;33.60;30.60;;;;;;;;;;5095786;28;20207;-79
2022/12/15 01:32:31;;;;;;;34.53;30.90;;;;;;;;;;5096788;28;20206;-78
2022/12/15 01:34:58;;;;;;;35.22;32.15;;;;;;;;;;5095784;28;20202;-79
2022/12/15 01:37:25;;;;;;;35.45;32.25;;;;;;;;;;5096240;28;20234;-78
2022/12/15 01:42:38;;;;;;;34.83;31.73;;;;;;;;;;5096125;28;20596;-77
2022/12/15 01:45:36;;;;;;;34.53;31.58;;;;;;;;;;5095402;28;20554;-78
2022/12/15 01:48:05;;;;;;;34.00;30.90;;;;;;;;;;5033659;28;20212;-77
2022/12/15 01:50:33;;;;;;;35.22;32.10;;;;;;;;;;5082256;28;20209;-79
2022/12/15 01:53:00;;;;;;;34.72;31.98;;;;;;;;;;5095989;28;20211;-79
2022/12/15 01:55:28;;;;;;;35.83;32.67;;;;;;;;;;5096108;28;20233;-79
2022/12/15 01:58:00;;;;;;;35.50;32.50;;;;;;;;;;5096268;28;20206;-79
2022/12/15 02:00:28;;;;;;;35.53;32.17;;;;;;;;;;5095340;28;20214;-78
2022/12/15 02:02:55;;;;;;;33.63;30.88;;;;;;;;;;5095453;28;20210;-79
2022/12/15 02:05:23;;;;;;;34.25;31.25;;;;;;;;;;5095413;28;20226;-79
2022/12/15 02:07:50;;;;;;;36.45;32.85;;;;;;;;;;5096327;28;20654;-78
2022/12/15 02:10:17;;;;;;;34.42;31.42;;;;;;;;;;5096103;28;20210;-80
2022/12/15 02:12:49;;;;;;;34.72;31.67;;;;;;;;;;5096149;28;20203;-79
2022/12/15 02:15:21;;;;;;;35.17;32.10;;;;;;;;;;5094845;28;20198;-77
2022/12/15 02:17:51;;;;;;;34.00;31.02;;;;;;;;;;5095473;28;20868;-79
2022/12/15 02:20:28;;;;;;;36.83;33.08;;;;;;;;;;5096072;28;20206;-78
2022/12/15 02:23:09;;;;;;;34.88;31.88;;;;;;;;;;5095527;28;20630;-79
2022/12/15 02:25:51;;;;;;;33.38;30.80;;;;;;;;;;5095408;28;20469;-77
2022/12/15 02:28:22;;;;;;;35.55;32.05;;;;;;;;;;5093880;28;20210;-79
2022/12/15 02:31:48;;;;;;;33.00;30.17;;;;;;;;;;5095035;28;20213;-77
2022/12/15 02:33:41;;;;;;;34.15;31.00;;;;;;;;;;5094049;28;20202;-79
2022/12/15 02:36:11;;;;;;;33.63;30.55;;;;;;;;;;5094280;28;20725;-78
2022/12/15 02:38:40;;;;;;;33.17;30.58;;;;;;;;;;5094356;28;20212;-78
2022/12/15 02:41:27;;;;;;;33.97;31.02;;;;;;;;;;5094627;28;20761;-78
2022/12/15 02:43:56;;;;;;;33.92;30.65;;;;;;;;;;5094376;28;20202;-78
2022/12/15 02:46:30;;;;;;;34.47;31.45;;;;;;;;;;5094665;28;20230;-78
2022/12/15 02:49:01;;;;;;;35.15;31.95;;;;;;;;;;5094592;28;20217;-78
2022/12/15 02:51:35;;;;;;;33.05;30.45;;;;;;;;;;5095110;28;20183;-79
2022/12/15 02:54:11;;;;;;;35.47;32.40;;;;;;;;;;5093798;28;20191;-78
2022/12/15 02:56:42;;;;;;;35.45;32.65;;;;;;;;;;5094325;28;20222;-78
2022/12/15 02:59:13;;;;;;;34.88;31.88;;;;;;;;;;5094391;28;20203;-79
2022/12/15 03:01:43;;;;;;;34.13;31.23;;;;;;;;;;5094178;28;20226;-79
2022/12/15 03:04:12;;;;;;;33.72;30.85;;;;;;;;;;5093908;28;20198;-77
2022/12/15 03:06:39;;;;;;;34.92;31.45;;;;;;;;;;5094381;28;20230;-78
2022/12/15 03:09:06;;;;;;;34.40;31.42;;;;;;;;;;5094658;28;20307;-78
2022/12/15 03:11:33;;;;;;;35.00;32.20;;;;;;;;;;5093850;28;20682;-78
2022/12/15 03:14:00;;;;;;;34.83;32.05;;;;;;;;;;5093719;28;20203;-79
2022/12/15 03:16:29;;;;;;;34.88;31.73;;;;;;;;;;5094226;28;20226;-78
2022/12/15 03:18:56;;;;;;;35.08;31.70;;;;;;;;;;5094137;28;20218;-78
2022/12/15 03:21:23;;;;;;;33.42;30.85;;;;;;;;;;5094336;28;20222;-79
2022/12/15 03:23:50;;;;;;;33.97;31.00;;;;;;;;;;5094201;28;20252;-78
2022/12/15 03:26:17;;;;;;;35.13;32.13;;;;;;;;;;5093068;28;20218;-78
2022/12/15 03:28:45;;;;;;;34.13;31.38;;;;;;;;;;5093659;28;20202;-78
2022/12/15 03:31:12;;;;;;;33.95;31.05;;;;;;;;;;5094481;28;20213;-78
2022/12/15 03:33:40;;;;;;;32.47;29.67;;;;;;;;;;5093894;28;20206;-79
2022/12/15 03:36:08;;;;;;;32.08;29.15;;;;;;;;;;5093168;28;20226;-79
2022/12/15 03:38:35;;;;;;;33.30;30.45;;;;;;;;;;5094156;28;20207;-78
2022/12/15 03:41:02;;;;;;;34.65;31.58;;;;;;;;;;5094787;28;20223;-78
2022/12/15 03:43:29;;;;;;;32.75;29.85;;;;;;;;;;5093890;28;20217;-78
2022/12/15 03:45:56;;;;;;;34.08;31.13;;;;;;;;;;5093612;28;20222;-78
2022/12/15 03:48:23;;;;;;;36.45;32.92;;;;;;;;;;5093144;28;20206;-78
2022/12/15 03:50:51;;;;;;;33.58;30.70;;;;;;;;;;5093651;28;20214;-80
2022/12/15 03:53:19;;;;;;;33.63;31.00;;;;;;;;;;5093257;28;20233;-78
2022/12/15 03:55:46;;;;;;;32.58;29.88;;;;;;;;;;5093341;28;20222;-79
2022/12/15 03:58:13;;;;;;;34.40;31.30;;;;;;;;;;5095863;28;20198;-78
2022/12/15 04:00:40;;;;;;;32.80;30.20;;;;;;;;;;5092835;28;20206;-78
2022/12/15 04:03:07;;;;;;;33.45;30.58;;;;;;;;;;5092232;28;20236;-78
2022/12/15 04:05:34;;;;;;;32.15;29.45;;;;;;;;;;5093719;28;20235;-78
2022/12/15 04:08:03;;;;;;;33.33;30.38;;;;;;;;;;5094926;28;20690;-78
2022/12/15 04:10:31;;;;;;;36.65;33.15;;;;;;;;;;5094065;28;20205;-77
2022/12/15 04:12:59;;;;;;;34.10;30.77;;;;;;;;;;5094233;28;20198;-78
2022/12/15 04:15:26;;;;;;;35.85;32.53;;;;;;;;;;5094870;28;20257;-77
2022/12/15 04:17:54;;;;;;;34.88;31.90;;;;;;;;;;5094922;28;20206;-78
2022/12/15 04:20:20;;;;;;;35.20;31.85;;;;;;;;;;5094562;28;20205;-77
2022/12/15 04:22:48;;;;;;;35.25;32.15;;;;;;;;;;5094857;28;20262;-78
2022/12/15 05:34:06;;;;;;;32.33;29.38;;;;;;;;;;5099604;28;20186;-79
2022/12/15 05:36:33;;;;;;;38.47;34.33;;;;;;;;;;5100561;28;20223;-78
2022/12/15 05:39:00;;;;;;;34.72;31.63;;;;;;;;;;5100809;28;20226;-79
2022/12/15 05:41:27;;;;;;;36.90;33.72;;;;;;;;;;5099470;28;20602;-78
2022/12/15 05:43:54;;;;;;;36.95;33.65;;;;;;;;;;5099082;28;20206;-78
2022/12/15 05:46:23;;;;;;;38.67;35.05;;;;;;;;;;5098891;28;20230;-78
2022/12/15 05:48:50;;;;;;;36.92;33.40;;;;;;;;;;5096331;28;20263;-77
2022/12/15 05:51:17;;;;;;;37.58;34.35;;;;;;;;;;5096252;28;20210;-79
2022/12/15 05:53:44;;;;;;;37.97;34.45;;;;;;;;;;5095773;28;20214;-79
2022/12/15 05:56:11;;;;;;;39.83;36.10;;;;;;;;;;5097161;28;20226;-78
2022/12/15 05:58:39;;;;;;;37.55;34.28;;;;;;;;;;5096929;28;20206;-78
2022/12/15 06:01:07;;;;;;;36.80;33.20;;;;;;;;;;5095806;28;20207;-77
2022/12/15 06:03:35;;;;;;;38.50;35.13;;;;;;;;;;5095650;28;20203;-77
2022/12/15 06:06:03;;;;;;;38.15;34.63;;;;;;;;;;5095684;28;20223;-79
2022/12/15 06:08:31;;;;;;;33.30;30.23;;;;;;;;;;5095485;28;20203;-79
2022/12/15 06:10:58;;;;;;;33.75;30.75;;;;;;;;;;5095209;28;20206;-79
2022/12/15 06:13:26;;;;;;;35.78;32.28;;;;;;;;;;5094817;28;20217;-79
2022/12/15 06:15:57;;;;;;;35.83;32.63;;;;;;;;;;5095783;28;20226;-79
2022/12/15 06:18:24;;;;;;;34.83;31.73;;;;;;;;;;5095844;28;20206;-77
2022/12/15 06:20:58;;;;;;;36.13;32.17;;;;;;;;;;5096174;28;20203;-78
2022/12/15 06:23:26;;;;;;;33.58;30.58;;;;;;;;;;5095482;28;20551;-78
2022/12/15 06:25:54;;;;;;;34.90;31.95;;;;;;;;;;5094942;28;20246;-78
2022/12/15 06:28:22;;;;;;;36.10;32.50;;;;;;;;;;5096485;28;20584;-77
2022/12/15 06:30:50;;;;;;;36.83;33.00;;;;;;;;;;5095626;28;20293;-78
2022/12/15 06:33:17;;;;;;;35.97;32.35;;;;;;;;;;5094503;28;20218;-78
2022/12/15 06:35:44;;;;;;;35.88;32.58;;;;;;;;;;5095516;28;20591;-78
2022/12/15 06:38:12;;;;;;;38.78;34.35;;;;;;;;;;5096330;28;20545;-80
2022/12/15 06:40:39;;;;;;;34.25;31.05;;;;;;;;;;5093696;28;20214;-78
2022/12/15 06:43:07;;;;;;;35.35;31.90;;;;;;;;;;5094081;28;20720;-78
2022/12/15 06:45:34;;;;;;;35.22;31.90;;;;;;;;;;5094918;28;20288;-78
2022/12/15 06:48:01;;;;;;;34.08;31.08;;;;;;;;;;5095263;28;20206;-78
2022/12/15 06:50:28;;;;;;;34.85;31.67;;;;;;;;;;5095294;28;20206;-78
2022/12/15 06:52:56;;;;;;;37.40;33.75;;;;;;;;;;5095224;28;20198;-80
2022/12/15 06:55:24;;;;;;;37.03;33.45;;;;;;;;;;5094941;28;20222;-79
2022/12/15 06:57:51;;;;;;;36.63;32.97;;;;;;;;;;5094977;28;20205;-79
2022/12/15 07:00:18;;;;;;;36.97;33.35;;;;;;;;;;5095098;28;20867;-77
2022/12/15 07:02:45;;;;;;;38.03;34.33;;;;;;;;;;5094291;28;20602;-78
2022/12/15 07:05:13;;;;;;;37.00;33.75;;;;;;;;;;5094083;28;20203;-77
2022/12/15 07:07:40;;;;;;;38.28;34.55;;;;;;;;;;5095585;28;20207;-78
2022/12/15 07:10:07;;;;;;;37.92;34.38;;;;;;;;;;5094951;28;20199;-79
2022/12/15 07:12:35;;;;;;;35.38;31.95;;;;;;;;;;5095197;28;20203;-79
2022/12/15 07:15:04;;;;;;;38.10;34.10;;;;;;;;;;5093430;28;20207;-78
2022/12/15 07:17:31;;;;;;;35.92;32.40;;;;;;;;;;5094738;28;20202;-78
2022/12/15 07:19:59;;;;;;;39.80;34.72;;;;;;;;;;5094836;28;20210;-77
2022/12/15 07:22:26;;;;;;;36.95;33.42;;;;;;;;;;5094375;28;20219;-79
2022/12/15 07:24:53;;;;;;;36.47;32.97;;;;;;;;;;5093648;28;20666;-78
2022/12/15 07:27:20;;;;;;;37.53;33.80;;;;;;;;;;5093565;28;20219;-77
2022/12/15 07:29:48;;;;;;;34.88;31.55;;;;;;;;;;5094103;28;20202;-78
2022/12/15 07:32:15;;;;;;;36.05;32.60;;;;;;;;;;5094241;28;20198;-78
2022/12/15 07:34:42;;;;;;;37.03;33.47;;;;;;;;;;5093129;28;20236;-76
2022/12/15 07:37:09;;;;;;;37.15;33.60;;;;;;;;;;5093568;28;20225;-76
2022/12/15 07:39:37;;;;;;;36.50;33.25;;;;;;;;;;5093427;28;20682;-75
2022/12/15 07:42:04;;;;;;;35.03;31.63;;;;;;;;;;5093493;28;20226;-75
2022/12/15 07:44:31;;;;;;;36.70;32.80;;;;;;;;;;5092890;28;20663;-75
2022/12/15 07:47:00;;;;;;;38.42;34.33;;;;;;;;;;5092620;28;20252;-74
2022/12/15 07:49:27;;;;;;;36.20;32.50;;;;;;;;;;5093100;28;20203;-75
2022/12/15 07:51:57;;;;;;;36.30;32.80;;;;;;;;;;5093482;28;20202;-75
2022/12/15 07:54:24;;;;;;;38.00;34.25;;;;;;;;;;5092780;28;20213;-76
2022/12/15 07:56:51;;;;;;;35.72;32.33;;;;;;;;;;5092278;28;20317;-76
2022/12/15 07:59:19;;;;;;;40.20;32.72;;;;;;;;;;5093393;28;20244;-75
2022/12/15 08:01:46;;;;;;;35.65;32.40;;;;;;;;;;5093324;28;20207;-76
2022/12/15 08:04:15;;;;;;;34.88;31.42;;;;;;;;;;5092569;28;20217;-76
2022/12/15 08:06:42;;;;;;;36.60;32.95;;;;;;;;;;5092737;28;20219;-75
2022/12/15 08:09:11;;;;;;;37.50;33.75;;;;;;;;;;5093114;28;20203;-74
2022/12/15 08:11:38;;;;;;;35.00;31.90;;;;;;;;;;5093410;28;20237;-76
2022/12/15 08:14:05;;;;;;;38.45;34.60;;;;;;;;;;5092410;28;20214;-75
2022/12/15 08:16:33;;;;;;;37.60;33.63;;;;;;;;;;5092333;28;20229;-75
2022/12/15 08:19:00;;;;;;;37.03;33.45;;;;;;;;;;5093201;28;20206;-75
2022/12/15 08:21:30;;;;;;;36.80;33.17;;;;;;;;;;5093477;28;20199;-75
2022/12/15 08:23:57;;;;;;;37.38;33.60;;;;;;;;;;5092313;28;20321;-76
2022/12/15 08:26:24;;;;;;;38.00;34.25;;;;;;;;;;5092242;28;20233;-76
2022/12/15 08:28:51;;;;;;;38.72;34.33;;;;;;;;;;5092548;28;20202;-75
2022/12/15 08:31:19;;;;;;;41.42;33.80;;;;;;;;;;5093032;28;20206;-75
2022/12/15 08:33:46;;;;;;;39.75;33.58;;;;;;;;;;5092145;28;20662;-75
2022/12/15 08:36:14;;;;;;;37.40;33.67;;;;;;;;;;5092675;28;20231;-75
2022/12/15 08:38:44;;;;;;;41.10;35.20;;;;;;;;;;5092208;28;20566;-75
2022/12/15 08:41:12;;;;;;;37.92;34.28;;;;;;;;;;5092713;28;20574;-76
2022/12/15 08:43:40;;;;;;;37.20;33.38;;;;;;;;;;5092135;28;20218;-76
2022/12/15 08:46:07;;;;;;;39.83;35.33;;;;;;;;;;5092266;28;20638;-76
2022/12/15 08:48:35;;;;;;;38.47;34.67;;;;;;;;;;5092719;28;20597;-75
2022/12/15 08:51:02;;;;;;;38.85;35.05;;;;;;;;;;5092633;28;20210;-76
2022/12/15 08:53:29;;;;;;;37.88;34.38;;;;;;;;;;5091944;28;20213;-75
2022/12/15 08:56:01;;;;;;;39.58;35.83;;;;;;;;;;5092272;28;20218;-75
2022/12/15 08:58:28;;;;;;;38.75;34.72;;;;;;;;;;5092657;28;20252;-75
2022/12/15 09:01:00;;;;;;;37.42;33.83;;;;;;;;;;5092443;28;20701;-75
2022/12/15 09:03:27;;;;;;;38.33;34.47;;;;;;;;;;5091989;28;20207;-75
2022/12/15 09:05:54;;;;;;;37.70;34.10;;;;;;;;;;5092355;28;20238;-75
2022/12/15 09:08:21;;;;;;;36.00;32.60;;;;;;;;;;5092701;28;20203;-75
2022/12/15 09:10:48;;;;;;;36.72;33.33;;;;;;;;;;5092530;28;20203;-75
2022/12/15 09:13:16;;;;;;;39.72;35.70;;;;;;;;;;5092190;28;20541;-75
2022/12/15 09:15:44;;;;;;;37.83;34.40;;;;;;;;;;5092559;28;20240;-75
2022/12/15 09:18:11;;;;;;;39.40;35.45;;;;;;;;;;5092534;28;20203;-74
2022/12/15 09:20:38;;;;;;;38.95;35.00;;;;;;;;;;5092581;28;20207;-75
2022/12/15 09:23:05;;;;;;;40.58;36.40;;;;;;;;;;5091873;28;20572;-75
2022/12/15 09:25:33;;;;;;;42.30;37.95;;;;;;;;;;5092279;28;20230;-75
2022/12/15 09:28:00;;;;;;;36.55;32.65;;;;;;;;;;5094568;28;20213;-75
2022/12/15 09:30:28;;;;;;;37.58;33.97;;;;;;;;;;5096174;28;20191;-75
2022/12/15 09:32:55;;;;;;;35.10;31.58;;;;;;;;;;5096795;28;20202;-79
2022/12/15 09:35:22;;;;;;;35.92;32.30;;;;;;;;;;5096914;28;20207;-75
2022/12/15 09:37:49;;;;;;;37.97;34.30;;;;;;;;;;5096046;28;20221;-76
2022/12/15 09:40:16;;;;;;;39.13;35.10;;;;;;;;;;5095769;28;20558;-76
2022/12/15 09:42:48;;;;;;;42.42;38.22;;;;;;;;;;5095507;28;20762;-76
2022/12/15 09:45:17;;;;;;;40.65;36.83;;;;;;;;;;5095387;28;20183;-76
2022/12/15 09:47:50;;;;;;;48.70;42.90;;;;;;;;;;5096061;28;20203;-76
2022/12/15 09:50:19;;;;;;;42.42;37.90;;;;;;;;;;5095844;28;20709;-75
2022/12/15 09:52:49;;;;;;;51.50;41.75;;;;;;;;;;5095497;28;20203;-76
2022/12/15 09:55:21;;;;;;;42.35;38.08;;;;;;;;;;5094798;28;20697;-76
2022/12/15 09:57:51;;;;;;;41.97;37.58;;;;;;;;;;5095242;28;20241;-75
2022/12/15 10:00:21;;;;;;;37.63;33.83;;;;;;;;;;5095301;28;20698;-77
2022/12/15 10:03:18;;;;;;;38.33;33.33;;;;;;;;;;5095205;28;20223;-76
2022/12/15 10:05:56;;;;;;;37.17;33.63;;;;;;;;;;5095229;28;20233;-76
2022/12/15 10:08:25;;;;;;;36.60;33.22;;;;;;;;;;5095445;28;20248;-75
2022/12/15 10:10:54;;;;;;;37.60;34.20;;;;;;;;;;5095596;28;20203;-75
2022/12/15 10:13:26;;;;;;;37.08;33.20;;;;;;;;;;5094780;28;20229;-76
2022/12/15 10:15:58;;;;;;;36.42;33.05;;;;;;;;;;5094980;28;20623;-76
2022/12/15 10:18:27;;;;;;;37.22;33.42;;;;;;;;;;5094971;28;20205;-77
2022/12/15 10:20:55;;;;;;;34.72;31.42;;;;;;;;;;5095192;28;20214;-76
2022/12/15 10:23:23;;;;;;;36.88;32.67;;;;;;;;;;5094615;28;20218;-75
2022/12/15 10:25:51;;;;;;;35.97;32.33;;;;;;;;;;5095137;28;20230;-76
2022/12/15 10:28:31;;;;;;;35.20;32.00;;;;;;;;;;5095167;28;20238;-76
2022/12/15 10:31:01;;;;;;;34.33;31.48;;;;;;;;;;5095156;28;20190;-76
2022/12/15 10:33:31;;;;;;;33.97;31.02;;;;;;;;;;5094363;28;20230;-76
2022/12/15 10:35:59;;;;;;;35.53;32.17;;;;;;;;;;5094646;28;20226;-75
2022/12/15 10:38:29;;;;;;;34.45;31.33;;;;;;;;;;5094057;28;20239;-74
2022/12/15 10:40:57;;;;;;;34.78;31.60;;;;;;;;;;5094542;28;20210;-76
2022/12/15 10:43:25;;;;;;;35.47;31.65;;;;;;;;;;5094140;28;20233;-75
2022/12/15 10:46:00;;;;;;;35.58;32.38;;;;;;;;;;5094591;28;20229;-76
2022/12/15 10:48:27;;;;;;;34.85;31.65;;;;;;;;;;5094646;28;20221;-75
2022/12/15 10:51:08;;;;;;;33.95;30.50;;;;;;;;;;5094586;28;20206;-75
2022/12/15 10:53:40;;;;;;;33.28;30.25;;;;;;;;;;5094016;28;20191;-76
2022/12/15 10:56:08;;;;;;;30.58;28.13;;;;;;;;;;5094593;28;20218;-75
2022/12/15 10:58:46;;;;;;;32.13;29.25;;;;;;;;;;5094516;28;20214;-75
2022/12/15 11:01:16;;;;;;;32.47;29.48;;;;;;;;;;5093859;28;20211;-75
2022/12/15 11:03:43;;;;;;;32.88;29.67;;;;;;;;;;5093790;28;20605;-74
2022/12/15 11:06:15;;;;;;;32.85;29.95;;;;;;;;;;5093871;28;20594;-74
2022/12/15 11:08:43;;;;;;;33.67;30.73;;;;;;;;;;5094041;28;20225;-76
2022/12/15 11:14:12;;;;;;;33.22;30.40;;;;;;;;;;5093841;28;20296;-76
2022/12/15 11:16:43;;;;;;;33.50;30.73;;;;;;;;;;5093571;28;20227;-75
2022/12/15 11:19:12;;;;;;;33.92;31.13;;;;;;;;;;5093796;28;20631;-77
2022/12/15 11:21:43;;;;;;;33.38;30.20;;;;;;;;;;5093967;28;20263;-75
2022/12/15 11:24:12;;;;;;;33.30;30.30;;;;;;;;;;5093223;28;20667;-75
2022/12/15 11:26:47;;;;;;;33.50;30.70;;;;;;;;;;5093915;28;20257;-75
2022/12/15 11:29:19;;;;;;;33.92;30.85;;;;;;;;;;5093983;28;20194;-77
2022/12/15 11:31:46;;;;;;;33.78;30.63;;;;;;;;;;5093831;28;20183;-75
2022/12/15 11:34:16;;;;;;;34.92;31.92;;;;;;;;;;5093306;28;20609;-76
2022/12/15 11:36:54;;;;;;;33.83;30.85;;;;;;;;;;5093797;28;20227;-75
2022/12/15 11:39:27;;;;;;;33.72;30.67;;;;;;;;;;5093567;28;20306;-75
2022/12/15 11:41:56;;;;;;;34.10;31.20;;;;;;;;;;5093726;28;20202;-76
2022/12/15 11:44:28;;;;;;;33.35;30.38;;;;;;;;;;5093176;28;20223;-82
2022/12/15 11:46:59;;;;;;;26.83;24.98;;;;;;;;;;5098299;28;20276;-75
2022/12/15 11:49:38;;;;;;;33.08;30.05;;;;;;;;;;5093283;28;20184;-75
2022/12/15 11:52:12;;;;;;;34.50;31.17;;;;;;;;;;5093638;28;20680;-78
2022/12/15 11:54:40;;;;;;;32.47;29.50;;;;;;;;;;5094361;28;20190;-81
2022/12/15 11:57:18;;;;;;;31.60;28.90;;;;;;;;;;5096898;28;20232;-84
2022/12/15 11:59:56;;;;;;;30.05;27.55;;;;;;;;;;5098793;28;20596;-77
2022/12/15 12:02:38;;;;;;;31.63;29.10;;;;;;;;;;5096884;28;20555;-84
2022/12/15 12:05:15;;;;;;;32.15;29.25;;;;;;;;;;5079909;28;20230;-77
2022/12/15 12:07:45;;;;;;;34.63;31.15;;;;;;;;;;5095403;28;20198;-81
2022/12/15 12:10:20;;;;;;;30.88;28.58;;;;;;;;;;5096306;28;20183;-83
2022/12/15 12:12:53;;;;;;;33.53;30.42;;;;;;;;;;5093676;28;20231;-76
2022/12/15 12:15:25;;;;;;;34.10;31.17;;;;;;;;;;5092876;28;20190;-76
2022/12/15 12:17:53;;;;;;;32.20;29.00;;;;;;;;;;5093277;28;20197;-76
2022/12/15 12:20:21;;;;;;;31.35;28.80;;;;;;;;;;5093132;28;20207;-76
2022/12/15 12:22:54;;;;;;;30.73;28.13;;;;;;;;;;5093221;28;20256;-76
2022/12/15 12:25:22;;;;;;;30.88;28.42;;;;;;;;;;5092582;28;20206;-76
2022/12/15 12:27:53;;;;;;;31.02;28.48;;;;;;;;;;5092717;28;20210;-77
2022/12/15 12:30:20;;;;;;;32.15;29.27;;;;;;;;;;5093123;28;20194;-76
2022/12/15 12:32:53;;;;;;;33.13;29.95;;;;;;;;;;5092607;28;20678;-77
2022/12/15 12:35:24;;;;;;;33.33;30.55;;;;;;;;;;5093088;28;20194;-76
2022/12/15 12:37:53;;;;;;;32.80;30.00;;;;;;;;;;5097416;28;20223;-83
2022/12/15 12:40:27;;;;;;;29.17;26.95;;;;;;;;;;5101517;28;20218;-84
2022/12/15 12:42:55;;;;;;;31.08;28.70;;;;;;;;;;5098346;28;20538;-81
2022/12/15 12:45:24;;;;;;;33.85;30.75;;;;;;;;;;5092597;28;20713;-78
2022/12/15 12:47:51;;;;;;;32.55;29.67;;;;;;;;;;5093581;28;20206;-72
2022/12/15 12:50:20;;;;;;;32.85;29.98;;;;;;;;;;5092376;28;20666;-72
2022/12/15 12:52:49;;;;;;;30.88;27.98;;;;;;;;;;5091975;28;20202;-72
2022/12/15 12:55:29;;;;;;;31.98;29.17;;;;;;;;;;5091869;28;20208;-72
2022/12/15 12:57:56;;;;;;;31.67;28.58;;;;;;;;;;5092480;28;20261;-72
2022/12/15 13:00:25;;;;;;;32.10;29.50;;;;;;;;;;5092644;28;20210;-73
2022/12/15 13:03:16;;;;;;;32.75;30.08;;;;;;;;;;5095423;28;20305;-71
2022/12/15 13:05:44;;;;;;;30.90;28.30;;;;;;;;;;5096362;28;20616;-72
2022/12/15 13:08:47;;;;;;;33.38;30.52;;;;;;;;;;5096397;28;20207;-73
2022/12/15 13:11:32;;;;;;;32.80;29.90;;;;;;;;;;5096092;28;20689;-72
2022/12/15 13:14:02;;;;;;;33.42;30.23;;;;;;;;;;5095622;28;20629;-71
2022/12/15 13:16:31;;;;;;;34.58;31.33;;;;;;;;;;5096073;28;20230;-72
2022/12/15 13:19:01;;;;;;;31.05;28.35;;;;;;;;;;5096007;28;20917;-73
2022/12/15 13:21:47;;;;;;;32.47;29.65;;;;;;;;;;5096085;28;20206;-71
2022/12/15 13:24:19;;;;;;;36.10;32.90;;;;;;;;;;5095512;28;20235;-72
2022/12/15 13:26:46;;;;;;;33.15;30.20;;;;;;;;;;5096039;28;20226;-72
2022/12/15 13:29:15;;;;;;;34.42;31.27;;;;;;;;;;5096013;28;20213;-72
2022/12/15 13:31:47;;;;;;;33.67;30.80;;;;;;;;;;5095873;28;20209;-72
2022/12/15 13:34:17;;;;;;;34.58;31.25;;;;;;;;;;5094567;28;20285;-72
2022/12/15 13:36:45;;;;;;;36.25;33.13;;;;;;;;;;5095910;28;20592;-73
2022/12/15 13:39:27;;;;;;;41.03;37.28;;;;;;;;;;5095404;28;20210;-72
2022/12/15 13:42:08;;;;;;;33.50;30.60;;;;;;;;;;5094311;28;20212;-72
2022/12/15 13:44:40;;;;;;;32.03;29.35;;;;;;;;;;5093601;28;20218;-72
2022/12/15 13:47:11;;;;;;;34.92;31.67;;;;;;;;;;5094870;28;20222;-70
2022/12/15 13:49:39;;;;;;;31.33;28.63;;;;;;;;;;5094661;28;20591;-71
2022/12/15 13:52:12;;;;;;;41.95;37.67;;;;;;;;;;5094256;28;20206;-71
2022/12/15 13:54:41;;;;;;;32.55;29.75;;;;;;;;;;5093615;28;20210;-71
2022/12/15 13:57:10;;;;;;;31.90;29.25;;;;;;;;;;5093939;28;20219;-71
2022/12/15 13:59:44;;;;;;;32.03;29.42;;;;;;;;;;5093563;28;20207;-71
2022/12/15 14:02:26;;;;;;;31.77;29.00;;;;;;;;;;5094400;28;20194;-70
2022/12/15 14:05:06;;;;;;;33.65;30.83;;;;;;;;;;5091342;28;20218;-71
2022/12/15 14:07:33;;;;;;;35.40;32.40;;;;;;;;;;5094038;28;20690;-71
2022/12/15 14:10:01;;;;;;;34.70;31.20;;;;;;;;;;5094120;28;20264;-72
2022/12/15 14:12:29;;;;;;;33.33;30.23;;;;;;;;;;5093687;28;20230;-72
2022/12/15 14:14:58;;;;;;;33.42;30.83;;;;;;;;;;5093671;28;20200;-71
2022/12/15 14:17:27;;;;;;;32.22;29.00;;;;;;;;;;5093958;28;20585;-71
2022/12/15 14:19:54;;;;;;;31.00;28.58;;;;;;;;;;5093836;28;20233;-71
2022/12/15 14:22:22;;;;;;;31.98;29.30;;;;;;;;;;5094041;28;20241;-72
2022/12/15 14:24:50;;;;;;;32.53;29.88;;;;;;;;;;5088952;28;20303;-73
2022/12/15 14:27:24;;;;;;;35.17;32.28;;;;;;;;;;5083290;28;20223;-73
2022/12/15 14:30:08;;;;;;;35.75;32.28;;;;;;;;;;5093738;28;20223;-72
2022/12/15 14:32:37;;;;;;;34.42;31.15;;;;;;;;;;5093456;28;20247;-72
2022/12/15 14:35:04;;;;;;;35.88;32.55;;;;;;;;;;5093221;28;20210;-72
2022/12/15 14:37:31;;;;;;;32.97;30.02;;;;;;;;;;5093073;28;20291;-71
2022/12/15 14:39:58;;;;;;;34.43;31.43;;;;;;;;;;5058213;28;1022619;-73
2022/12/15 14:42:26;;;;;;;35.63;32.03;;;;;;;;;;5094932;28;20423;-81
2022/12/15 14:44:54;;;;;;;34.08;30.50;;;;;;;;;;5093960;28;20242;-72
2022/12/15 14:47:25;;;;;;;35.40;32.17;;;;;;;;;;5096958;28;20725;-73
2022/12/15 14:49:54;;;;;;;36.25;32.70;;;;;;;;;;5096379;28;20575;-81
2022/12/15 14:52:26;;;;;;;34.25;31.40;;;;;;;;;;5100040;28;20209;-85
2022/12/15 14:54:54;;;;;;;31.73;29.08;;;;;;;;;;5100260;28;20184;-85
2022/12/15 14:57:23;;;;;;;33.50;30.45;;;;;;;;;;5098645;28;20224;-82
2022/12/15 14:59:51;;;;;;;33.15;30.45;;;;;;;;;;5101883;28;20214;-84
2022/12/15 15:02:21;;;;;;;34.13;31.17;;;;;;;;;;5102849;28;20206;-79
2022/12/15 15:05:01;;;;;;;33.28;30.48;;;;;;;;;;5099733;28;20230;-79
2022/12/15 15:07:29;;;;;;;32.72;29.60;;;;;;;;;;5096289;28;20252;-77
2022/12/15 15:09:56;;;;;;;33.30;30.35;;;;;;;;;;5099502;28;20679;-77
2022/12/15 15:12:24;;;;;;;33.42;30.70;;;;;;;;;;5100976;28;20754;-82
2022/12/15 15:14:54;;;;;;;34.05;31.15;;;;;;;;;;5102522;28;20202;-80
2022/12/15 15:17:23;;;;;;;32.67;29.85;;;;;;;;;;5097892;28;20226;-79
2022/12/15 15:19:52;;;;;;;34.08;30.98;;;;;;;;;;5095856;28;20209;-80
2022/12/15 15:22:27;;;;;;;31.88;29.15;;;;;;;;;;5095468;28;20207;-75
2022/12/15 15:24:54;;;;;;;34.00;30.90;;;;;;;;;;5092977;28;20234;-74
2022/12/15 15:27:25;;;;;;;33.65;31.05;;;;;;;;;;5093517;28;20227;-80
2022/12/15 15:29:52;;;;;;;34.78;31.63;;;;;;;;;;5094417;28;20211;-75
2022/12/15 15:32:21;;;;;;;34.10;30.88;;;;;;;;;;5093381;28;20209;-75
2022/12/15 15:34:48;;;;;;;34.60;31.38;;;;;;;;;;5092857;28;20554;-75
2022/12/15 15:37:19;;;;;;;35.05;32.13;;;;;;;;;;5092746;28;20226;-75
2022/12/15 15:39:49;;;;;;;34.97;31.77;;;;;;;;;;5093406;28;20207;-75
2022/12/15 15:42:17;;;;;;;33.75;30.73;;;;;;;;;;5094005;28;20203;-75
2022/12/15 15:44:44;;;;;;;33.65;30.45;;;;;;;;;;5093078;28;20226;-75
2022/12/15 15:47:17;;;;;;;32.70;30.13;;;;;;;;;;5092820;28;20292;-75
2022/12/15 15:49:44;;;;;;;33.83;30.92;;;;;;;;;;5093412;28;20190;-75
2022/12/15 15:52:12;;;;;;;35.15;31.75;;;;;;;;;;5093597;28;20213;-76
2022/12/15 15:54:41;;;;;;;34.90;31.90;;;;;;;;;;5093237;28;20209;-79
2022/12/15 15:57:12;;;;;;;31.63;28.88;;;;;;;;;;5092649;28;20227;-76
2022/12/15 15:59:41;;;;;;;35.00;31.85;;;;;;;;;;5093493;28;20230;-76
2022/12/15 16:02:09;;;;;;;33.75;30.95;;;;;;;;;;5092714;28;20335;-75
2022/12/15 16:04:39;;;;;;;36.78;33.40;;;;;;;;;;5092292;28;20218;-76
2022/12/15 16:07:22;;;;;;;37.13;33.80;;;;;;;;;;5093607;28;20225;-75
2022/12/15 16:09:50;;;;;;;35.63;32.38;;;;;;;;;;5092520;28;20663;-75
2022/12/15 16:12:23;;;;;;;36.78;33.47;;;;;;;;;;5093418;28;20207;-76
2022/12/15 16:14:50;;;;;;;36.88;33.63;;;;;;;;;;5092363;28;20540;-76
2022/12/15 16:17:18;;;;;;;35.58;32.00;;;;;;;;;;5092747;28;20229;-75
2022/12/15 16:19:45;;;;;;;35.25;32.03;;;;;;;;;;5092279;28;20206;-76
2022/12/15 16:22:14;;;;;;;36.50;33.10;;;;;;;;;;5093022;28;20209;-76
2022/12/15 16:24:41;;;;;;;36.95;33.75;;;;;;;;;;5092131;28;20226;-75
2022/12/15 16:27:09;;;;;;;35.67;32.67;;;;;;;;;;5092245;28;20238;-75
2022/12/15 16:29:38;;;;;;;36.30;33.15;;;;;;;;;;5091564;28;20937;-76
2022/12/15 16:32:05;;;;;;;37.47;33.97;;;;;;;;;;5091061;28;20207;-81
2022/12/15 16:34:32;;;;;;;37.75;34.15;;;;;;;;;;5077150;28;20195;-83
2022/12/15 16:37:00;;;;;;;38.92;35.22;;;;;;;;;;5112658;22;20687;-84
2022/12/15 16:39:29;;;;;;;38.20;34.80;;;;;;;;;;5122160;28;20214;-86
2022/12/15 16:41:56;;;;;;;79.22;59.08;;;;;;;;;;5122173;28;20205;-84
2022/12/15 16:44:24;;;;;;;43.85;39.70;;;;;;;;;;5126451;22;20233;-85
2022/12/15 16:46:52;;;;;;;40.15;36.20;;;;;;;;;;5118585;28;20229;-72
2022/12/15 16:49:19;;;;;;;42.42;34.63;;;;;;;;;;5114141;28;20213;-72
2022/12/15 16:51:48;;;;;;;38.30;34.78;;;;;;;;;;5116342;28;20204;-73
2022/12/15 16:54:17;;;;;;;39.05;35.55;;;;;;;;;;5115696;28;20264;-72